Buoy 44845

sailwx.info

Track history (hours):
 
Tides and Currents Weather Stations Pressure Air Temp Water Temp Dewpoint Dewpoint Depression Visibility Wind Speed Wind Dir Waves Ship Positions

Drifting buoy 44845

Last reported at 2015-Aug-30 23:01 UTC. Time now 2015-Aug-31 00:34 UTC.
Position N 73°55' E 001°26'.

Date/timePositionNaut miles runAvg speedWind from/ knotsBaromVisibWave heightAir tempDewpointWater temp
2015-Aug-30 23:01N 73°55' E 001°26'1 0.6
2015-Aug-30 22:01N 73°56' E 001°27'1 0.7
2015-Aug-30 21:01N 73°56' E 001°27'1 0.7
2015-Aug-30 20:01N 73°57' E 001°28'1 0.7
2015-Aug-30 19:01N 73°58' E 001°28'1 0.8
2015-Aug-30 18:01N 73°59' E 001°28'1 0.7
2015-Aug-30 17:01N 73°59' E 001°27'1 0.6
2015-Aug-30 16:01N 74°00' E 001°27'1 0.6
2015-Aug-30 15:01N 74°01' E 001°26'1 0.6
2015-Aug-30 14:01N 74°01' E 001°26'0 0.5
2015-Aug-30 13:01N 74°02' E 001°25'0 0.4
2015-Aug-30 12:01N 74°02' E 001°25'0 0.4
2015-Aug-30 11:01N 74°02' E 001°25'1 0.5
2015-Aug-30 10:01N 74°03' E 001°26'1 0.6
2015-Aug-30 09:01N 74°03' E 001°27'1 0.6
2015-Aug-30 08:01N 74°04' E 001°27'1 0.7
2015-Aug-30 07:01N 74°05' E 001°28'1 0.7
2015-Aug-30 06:01N 74°05' E 001°29'1 0.7
2015-Aug-30 05:01N 74°06' E 001°29'1 0.5
2015-Aug-30 04:01N 74°07' E 001°29'1 0.5
2015-Aug-30 03:01N 74°07' E 001°30'0 0.4
2015-Aug-30 02:01N 74°08' E 001°30'0 0.4
2015-Aug-30 01:01N 74°08' E 001°30'0 0.3
2015-Aug-30 00:01N 74°08' E 001°31'0 0.4
2015-Aug-29 23:01N 74°09' E 001°32'1 0.5
2015-Aug-29 22:01N 74°09' E 001°33'1 0.5
2015-Aug-29 21:01N 74°09' E 001°34'1 0.6
2015-Aug-29 20:01N 74°10' E 001°36'1 0.6
2015-Aug-29 19:01N 74°10' E 001°37'1 0.8
2015-Aug-29 18:01N 74°11' E 001°39'1 0.8
2015-Aug-29 17:01N 74°11' E 001°40'1 0.7
2015-Aug-29 16:01N 74°12' E 001°41'1 0.6
2015-Aug-29 15:01N 74°13' E 001°42'1 0.6
2015-Aug-29 14:01N 74°13' E 001°43'1 0.5
2015-Aug-29 13:01N 74°14' E 001°44'0 0.4
2015-Aug-29 12:01N 74°14' E 001°44'0 0.3
2015-Aug-29 11:01N 74°14' E 001°45'0 0.4
2015-Aug-29 10:01N 74°14' E 001°46'1 0.5
2015-Aug-29 09:01N 74°15' E 001°47'1 0.6
2015-Aug-29 08:01N 74°15' E 001°49'2 0.6
2015-Aug-29 05:01N 74°17' E 001°52'1 0.6
2015-Aug-29 04:01N 74°17' E 001°52'0 0.5
2015-Aug-29 03:01N 74°18' E 001°53'0 0.4
2015-Aug-29 02:01N 74°18' E 001°53'0 0.4
2015-Aug-29 01:01N 74°18' E 001°54'0 0.3
2015-Aug-29 00:01N 74°19' E 001°55'0 0.3
2015-Aug-28 23:01N 74°19' E 001°55'0 0.4
2015-Aug-28 22:01N 74°19' E 001°57'0 0.4
2015-Aug-28 21:01N 74°19' E 001°58'1 0.6
2015-Aug-28 20:01N 74°20' E 002°00'1 0.5
2015-Aug-28 19:01N 74°20' E 002°02'1 0.6
2015-Aug-28 18:01N 74°20' E 002°03'1 0.5
2015-Aug-28 17:01N 74°21' E 002°05'1 0.6
2015-Aug-28 16:01N 74°21' E 002°07'1 0.5
2015-Aug-28 15:01N 74°21' E 002°08'0 0.5
2015-Aug-28 14:01N 74°21' E 002°09'0 0.4
2015-Aug-28 13:01N 74°22' E 002°11'0 0.4
2015-Aug-28 12:01N 74°22' E 002°12'1 0.5
2015-Aug-28 11:01N 74°22' E 002°14'1 0.5
2015-Aug-28 10:01N 74°22' E 002°16'1 0.6
2015-Aug-28 09:01N 74°22' E 002°18'1 0.6
2015-Aug-28 08:01N 74°22' E 002°21'1 0.6
2015-Aug-28 07:01N 74°22' E 002°23'1 0.6
2015-Aug-28 06:01N 74°22' E 002°25'1 0.5
2015-Aug-28 05:01N 74°23' E 002°27'1 0.5
2015-Aug-28 04:01N 74°23' E 002°29'1 0.6
2015-Aug-28 03:01N 74°23' E 002°31'1 0.6
2015-Aug-28 02:01N 74°23' E 002°33'1 0.5
2015-Aug-28 01:01N 74°23' E 002°35'1 0.5
2015-Aug-28 00:01N 74°23' E 002°37'0 0.5
2015-Aug-27 23:01N 74°23' E 002°39'0 0.5
2015-Aug-27 22:01N 74°22' E 002°40'1 0.5
2015-Aug-27 21:01N 74°22' E 002°42'1 0.5
2015-Aug-27 20:01N 74°22' E 002°44'1 0.5
2015-Aug-27 19:01N 74°22' E 002°46'1 0.5
2015-Aug-27 18:01N 74°22' E 002°48'1 0.5
2015-Aug-27 17:01N 74°23' E 002°50'0 0.4
2015-Aug-27 16:01N 74°23' E 002°51'0 0.4
2015-Aug-27 15:01N 74°23' E 002°53'0 0.3
2015-Aug-27 14:01N 74°23' E 002°54'0 0.3
2015-Aug-27 13:01N 74°23' E 002°55'0 0.4
2015-Aug-27 12:01N 74°23' E 002°56'0 0.4
2015-Aug-27 11:01N 74°23' E 002°58'0 0.5
2015-Aug-27 10:01N 74°22' E 002°60'1 0.5
2015-Aug-27 09:01N 74°23' E 003°01'1 0.6
2015-Aug-27 08:01N 74°23' E 003°04'1 0.5
2015-Aug-27 07:01N 74°23' E 003°05'0 0.5
2015-Aug-27 06:01N 74°23' E 003°07'0 0.4
2015-Aug-27 05:01N 74°24' E 003°08'0 0.3
2015-Aug-27 04:01N 74°24' E 003°08'0 0.2
2015-Aug-27 03:01N 74°24' E 003°09'0 0.2
2015-Aug-27 02:01N 74°24' E 003°10'0 0.2
2015-Aug-27 01:01N 74°24' E 003°10'0 0.3
2015-Aug-27 00:01N 74°24' E 003°12'0 0.4
2015-Aug-26 23:01N 74°24' E 003°13'0 0.5
2015-Aug-26 22:01N 74°24' E 003°15'0 0.5
2015-Aug-26 21:01N 74°24' E 003°17'0 0.5
2015-Aug-26 20:01N 74°24' E 003°18'1 0.5
2015-Aug-26 19:01N 74°25' E 003°20'0 0.5
2015-Aug-26 18:01N 74°25' E 003°21'0 0.4
2015-Aug-26 17:01N 74°25' E 003°22'0 0.4
2015-Aug-26 16:01N 74°26' E 003°22'0 0.3
2015-Aug-26 15:01N 74°26' E 003°23'0 0.2
2015-Aug-26 14:01N 74°26' E 003°23'0 0.1
2015-Aug-26 13:01N 74°26' E 003°23'0 0.2
2015-Aug-26 11:01N 74°27' E 003°24'0 0.3
2015-Aug-26 10:01N 74°27' E 003°25'0 0.4
2015-Aug-26 09:01N 74°27' E 003°26'0 0.5
2015-Aug-26 08:01N 74°27' E 003°27'0 0.5
2015-Aug-26 07:01N 74°28' E 003°28'0 0.5
2015-Aug-26 06:01N 74°28' E 003°28'0 0.5
2015-Aug-26 05:01N 74°29' E 003°28'0 0.3
2015-Aug-26 04:01N 74°29' E 003°27'0 0.3
2015-Aug-26 03:01N 74°29' E 003°27'0 0.2
2015-Aug-26 02:01N 74°29' E 003°26'0 0.1
2015-Aug-26 01:01N 74°29' E 003°26'0 0.0
2015-Aug-26 00:01N 74°29' E 003°26'0 0.2
2015-Aug-25 23:01N 74°30' E 003°27'0 0.2
2015-Aug-25 22:01N 74°30' E 003°28'0 0.3
2015-Aug-25 21:01N 74°30' E 003°29'1 0.5
2015-Aug-25 20:01N 74°30' E 003°30'1 0.6
2015-Aug-25 19:01N 74°31' E 003°31'1 0.5
2015-Aug-25 18:01N 74°31' E 003°31'1 0.6
2015-Aug-25 17:01N 74°32' E 003°30'1 0.6
2015-Aug-25 16:01N 74°32' E 003°29'1 0.5
2015-Aug-25 15:01N 74°33' E 003°28'0 0.4
2015-Aug-25 14:01N 74°33' E 003°26'0 0.3
2015-Aug-25 13:01N 74°33' E 003°25'0 0.1
2015-Aug-25 12:01N 74°33' E 003°25'0 0.1
2015-Aug-25 11:01N 74°33' E 003°25'0 0.2
2015-Aug-25 10:01N 74°33' E 003°26'0 0.3
2015-Aug-25 09:01N 74°33' E 003°27'0 0.4
2015-Aug-25 08:01N 74°34' E 003°27'0 0.5
2015-Aug-25 07:01N 74°34' E 003°27'0 0.4
2015-Aug-25 06:01N 74°35' E 003°26'0 0.5
2015-Aug-25 05:01N 74°35' E 003°25'1 0.5
2015-Aug-25 04:01N 74°35' E 003°24'0 0.5
2015-Aug-25 03:01N 74°36' E 003°22'0 0.4
2015-Aug-25 02:01N 74°36' E 003°21'0 0.4
2015-Aug-25 01:01N 74°36' E 003°20'0 0.3
2015-Aug-25 00:01N 74°35' E 003°18'0 0.2
2015-Aug-24 23:01N 74°35' E 003°18'0 0.2
2015-Aug-24 22:01N 74°35' E 003°18'0 0.1
2015-Aug-24 21:01N 74°35' E 003°18'0 0.1
2015-Aug-24 20:01N 74°35' E 003°18'0 0.2
2015-Aug-24 19:01N 74°35' E 003°18'0 0.2
2015-Aug-24 18:01N 74°36' E 003°18'0 0.3
2015-Aug-24 17:01N 74°36' E 003°17'0 0.4
2015-Aug-24 16:01N 74°36' E 003°16'0 0.5
2015-Aug-24 15:01N 74°36' E 003°15'0 0.4
2015-Aug-24 14:01N 74°36' E 003°13'0 0.4
2015-Aug-24 13:01N 74°36' E 003°11'0 0.4
2015-Aug-24 12:01N 74°36' E 003°10'0 0.4
2015-Aug-24 11:01N 74°36' E 003°09'0 0.4
2015-Aug-24 10:01N 74°35' E 003°08'0 0.3
2015-Aug-24 09:01N 74°35' E 003°08'0 0.2
2015-Aug-24 08:01N 74°35' E 003°08'0 0.1
2015-Aug-24 06:01N 74°35' E 003°08'0 0.2
2015-Aug-24 05:01N 74°35' E 003°07'0 0.4
2015-Aug-24 04:01N 74°35' E 003°06'0 0.5
2015-Aug-24 03:01N 74°35' E 003°04'1 0.5
2015-Aug-24 02:01N 74°35' E 003°02'1 0.6
2015-Aug-24 01:01N 74°34' E 003°00'1 0.6
2015-Aug-24 00:01N 74°34' E 002°59'1 0.5
2015-Aug-23 23:01N 74°34' E 002°58'0 0.5
2015-Aug-23 22:01N 74°33' E 002°57'0 0.4
2015-Aug-23 21:01N 74°33' E 002°56'0 0.3
2015-Aug-23 20:01N 74°32' E 002°56'0 0.2
2015-Aug-23 19:01N 74°32' E 002°56'0 0.1
2015-Aug-23 18:01N 74°32' E 002°56'0 0.3
2015-Aug-23 17:01N 74°32' E 002°55'0 0.3
2015-Aug-23 16:01N 74°32' E 002°54'1 0.9
2015-Aug-23 15:01N 74°32' E 002°50'0 0.0
2015-Aug-23 14:01N 74°32' E 002°50'1 0.5
2015-Aug-23 13:01N 74°32' E 002°49'1 0.5
2015-Aug-23 12:01N 74°31' E 002°47'1 0.6
2015-Aug-23 11:01N 74°31' E 002°46'0 0.5
2015-Aug-23 10:01N 74°30' E 002°45'0 0.5
2015-Aug-23 09:01N 74°30' E 002°44'0 0.4
2015-Aug-23 08:01N 74°30' E 002°44'0 0.3
2015-Aug-23 07:01N 74°29' E 002°43'0 0.3
2015-Aug-23 06:01N 74°29' E 002°43'0 0.2
2015-Aug-23 05:01N 74°29' E 002°42'0 0.2
2015-Aug-23 04:01N 74°29' E 002°41'0 0.3
2015-Aug-23 03:01N 74°29' E 002°40'1 0.3
2015-Aug-23 01:01N 74°28' E 002°38'0 0.3
2015-Aug-23 00:01N 74°28' E 002°37'0 0.3
2015-Aug-22 23:01N 74°28' E 002°37'0 0.3
2015-Aug-22 22:01N 74°28' E 002°36'0 0.3
2015-Aug-22 21:01N 74°27' E 002°37'0 0.3
2015-Aug-22 20:01N 74°27' E 002°37'0 0.3
2015-Aug-22 19:01N 74°27' E 002°38'0 0.3
2015-Aug-22 18:01N 74°27' E 002°39'0 0.3
2015-Aug-22 17:01N 74°27' E 002°39'0 0.1
2015-Aug-22 16:01N 74°27' E 002°40'0 0.1
2015-Aug-22 15:01N 74°26' E 002°40'0 0.1
2015-Aug-22 14:01N 74°26' E 002°40'0 0.2
2015-Aug-22 13:01N 74°26' E 002°39'0 0.3
2015-Aug-22 12:01N 74°26' E 002°38'0 0.4
2015-Aug-22 11:01N 74°26' E 002°38'0 0.5
2015-Aug-22 10:01N 74°25' E 002°38'1 0.6
2015-Aug-22 09:01N 74°25' E 002°38'1 0.7
2015-Aug-22 08:01N 74°24' E 002°39'1 0.6
2015-Aug-22 07:01N 74°24' E 002°41'0 0.5
2015-Aug-22 06:01N 74°23' E 002°42'0 0.5
2015-Aug-22 05:01N 74°23' E 002°44'0 0.5
2015-Aug-22 04:01N 74°23' E 002°45'0 0.4
2015-Aug-22 03:01N 74°23' E 002°47'0 0.3
2015-Aug-22 02:01N 74°23' E 002°48'0 0.3
2015-Aug-22 01:01N 74°22' E 002°49'0 0.3
2015-Aug-22 00:01N 74°22' E 002°50'0 0.4
2015-Aug-21 23:01N 74°22' E 002°51'0 0.4
2015-Aug-21 22:01N 74°22' E 002°52'0 0.4
2015-Aug-21 21:02N 74°22' E 002°53'0 0.5
2015-Aug-21 20:01N 74°21' E 002°54'1 0.5
2015-Aug-21 19:01N 74°21' E 002°56'1 0.5
2015-Aug-21 18:01N 74°21' E 002°58'1 0.6
2015-Aug-21 17:01N 74°21' E 002°60'1 0.6
2015-Aug-21 16:01N 74°21' E 003°02'1 0.6
2015-Aug-21 15:01N 74°20' E 003°04'1 0.6
2015-Aug-21 14:01N 74°20' E 003°06'1 0.6
2015-Aug-21 13:01N 74°20' E 003°08'1 0.5
2015-Aug-21 12:01N 74°20' E 003°10'1 0.5
2015-Aug-21 11:01N 74°20' E 003°12'1 0.5
2015-Aug-21 10:01N 74°20' E 003°14'0 0.5
2015-Aug-21 09:01N 74°20' E 003°15'0 0.5
2015-Aug-21 08:01N 74°19' E 003°17'1 0.5
2015-Aug-21 07:01N 74°19' E 003°19'1 0.5
2015-Aug-21 06:01N 74°19' E 003°21'0 0.5
2015-Aug-21 05:01N 74°19' E 003°22'0 0.5
2015-Aug-21 04:01N 74°19' E 003°24'0 0.5
2015-Aug-21 03:01N 74°19' E 003°26'0 0.5
2015-Aug-21 02:01N 74°19' E 003°28'0 0.4
2015-Aug-21 01:01N 74°19' E 003°29'0 0.4
2015-Aug-21 00:01N 74°19' E 003°30'0 0.3
2015-Aug-20 23:01N 74°19' E 003°32'  
Track history (hours):
 
Tides and Currents Weather Stations Pressure Air Temp Water Temp Dewpoint Dewpoint Depression Visibility Wind Speed Wind Dir Waves Ship Positions

Drifting buoy 44845

Last reported at 2015-Aug-30 23:01 UTC. Time now 2015-Aug-31 00:34 UTC.
Position N 73°55' E 001°26'.

Date/timePositionNaut miles runAvg speedWind from/ knotsBaromVisibWave heightAir tempDewpointWater temp
2015-Aug-30 23:01N 73°55' E 001°26'1 0.6
2015-Aug-30 22:01N 73°56' E 001°27'1 0.7
2015-Aug-30 21:01N 73°56' E 001°27'1 0.7
2015-Aug-30 20:01N 73°57' E 001°28'1 0.7
2015-Aug-30 19:01N 73°58' E 001°28'1 0.8
2015-Aug-30 18:01N 73°59' E 001°28'1 0.7
2015-Aug-30 17:01N 73°59' E 001°27'1 0.6
2015-Aug-30 16:01N 74°00' E 001°27'1 0.6
2015-Aug-30 15:01N 74°01' E 001°26'1 0.6
2015-Aug-30 14:01N 74°01' E 001°26'0 0.5
2015-Aug-30 13:01N 74°02' E 001°25'0 0.4
2015-Aug-30 12:01N 74°02' E 001°25'0 0.4
2015-Aug-30 11:01N 74°02' E 001°25'1 0.5
2015-Aug-30 10:01N 74°03' E 001°26'1 0.6
2015-Aug-30 09:01N 74°03' E 001°27'1 0.6
2015-Aug-30 08:01N 74°04' E 001°27'1 0.7
2015-Aug-30 07:01N 74°05' E 001°28'1 0.7
2015-Aug-30 06:01N 74°05' E 001°29'1 0.7
2015-Aug-30 05:01N 74°06' E 001°29'1 0.5
2015-Aug-30 04:01N 74°07' E 001°29'1 0.5
2015-Aug-30 03:01N 74°07' E 001°30'0 0.4
2015-Aug-30 02:01N 74°08' E 001°30'0 0.4
2015-Aug-30 01:01N 74°08' E 001°30'0 0.3
2015-Aug-30 00:01N 74°08' E 001°31'0 0.4
2015-Aug-29 23:01N 74°09' E 001°32'1 0.5
2015-Aug-29 22:01N 74°09' E 001°33'1 0.5
2015-Aug-29 21:01N 74°09' E 001°34'1 0.6
2015-Aug-29 20:01N 74°10' E 001°36'1 0.6
2015-Aug-29 19:01N 74°10' E 001°37'1 0.8
2015-Aug-29 18:01N 74°11' E 001°39'1 0.8
2015-Aug-29 17:01N 74°11' E 001°40'1 0.7
2015-Aug-29 16:01N 74°12' E 001°41'1 0.6
2015-Aug-29 15:01N 74°13' E 001°42'1 0.6
2015-Aug-29 14:01N 74°13' E 001°43'1 0.5
2015-Aug-29 13:01N 74°14' E 001°44'0 0.4
2015-Aug-29 12:01N 74°14' E 001°44'0 0.3
2015-Aug-29 11:01N 74°14' E 001°45'0 0.4
2015-Aug-29 10:01N 74°14' E 001°46'1 0.5
2015-Aug-29 09:01N 74°15' E 001°47'1 0.6
2015-Aug-29 08:01N 74°15' E 001°49'2 0.6
2015-Aug-29 05:01N 74°17' E 001°52'1 0.6
2015-Aug-29 04:01N 74°17' E 001°52'0 0.5
2015-Aug-29 03:01N 74°18' E 001°53'0 0.4
2015-Aug-29 02:01N 74°18' E 001°53'0 0.4
2015-Aug-29 01:01N 74°18' E 001°54'0 0.3
2015-Aug-29 00:01N 74°19' E 001°55'0 0.3
2015-Aug-28 23:01N 74°19' E 001°55'0 0.4
2015-Aug-28 22:01N 74°19' E 001°57'0 0.4
2015-Aug-28 21:01N 74°19' E 001°58'1 0.6
2015-Aug-28 20:01N 74°20' E 002°00'1 0.5
2015-Aug-28 19:01N 74°20' E 002°02'1 0.6
2015-Aug-28 18:01N 74°20' E 002°03'1 0.5
2015-Aug-28 17:01N 74°21' E 002°05'1 0.6
2015-Aug-28 16:01N 74°21' E 002°07'1 0.5
2015-Aug-28 15:01N 74°21' E 002°08'0 0.5
2015-Aug-28 14:01N 74°21' E 002°09'0 0.4
2015-Aug-28 13:01N 74°22' E 002°11'0 0.4
2015-Aug-28 12:01N 74°22' E 002°12'1 0.5
2015-Aug-28 11:01N 74°22' E 002°14'1 0.5
2015-Aug-28 10:01N 74°22' E 002°16'1 0.6
2015-Aug-28 09:01N 74°22' E 002°18'1 0.6
2015-Aug-28 08:01N 74°22' E 002°21'1 0.6
2015-Aug-28 07:01N 74°22' E 002°23'1 0.6
2015-Aug-28 06:01N 74°22' E 002°25'1 0.5
2015-Aug-28 05:01N 74°23' E 002°27'1 0.5
2015-Aug-28 04:01N 74°23' E 002°29'1 0.6
2015-Aug-28 03:01N 74°23' E 002°31'1 0.6
2015-Aug-28 02:01N 74°23' E 002°33'1 0.5
2015-Aug-28 01:01N 74°23' E 002°35'1 0.5
2015-Aug-28 00:01N 74°23' E 002°37'0 0.5
2015-Aug-27 23:01N 74°23' E 002°39'0 0.5
2015-Aug-27 22:01N 74°22' E 002°40'1 0.5
2015-Aug-27 21:01N 74°22' E 002°42'1 0.5
2015-Aug-27 20:01N 74°22' E 002°44'1 0.5
2015-Aug-27 19:01N 74°22' E 002°46'1 0.5
2015-Aug-27 18:01N 74°22' E 002°48'1 0.5
2015-Aug-27 17:01N 74°23' E 002°50'0 0.4
2015-Aug-27 16:01N 74°23' E 002°51'0 0.4
2015-Aug-27 15:01N 74°23' E 002°53'0 0.3
2015-Aug-27 14:01N 74°23' E 002°54'0 0.3
2015-Aug-27 13:01N 74°23' E 002°55'0 0.4
2015-Aug-27 12:01N 74°23' E 002°56'0 0.4
2015-Aug-27 11:01N 74°23' E 002°58'0 0.5
2015-Aug-27 10:01N 74°22' E 002°60'1 0.5
2015-Aug-27 09:01N 74°23' E 003°01'1 0.6
2015-Aug-27 08:01N 74°23' E 003°04'1 0.5
2015-Aug-27 07:01N 74°23' E 003°05'0 0.5
2015-Aug-27 06:01N 74°23' E 003°07'0 0.4
2015-Aug-27 05:01N 74°24' E 003°08'0 0.3
2015-Aug-27 04:01N 74°24' E 003°08'0 0.2
2015-Aug-27 03:01N 74°24' E 003°09'0 0.2
2015-Aug-27 02:01N 74°24' E 003°10'0 0.2
2015-Aug-27 01:01N 74°24' E 003°10'0 0.3
2015-Aug-27 00:01N 74°24' E 003°12'0 0.4
2015-Aug-26 23:01N 74°24' E 003°13'0 0.5
2015-Aug-26 22:01N 74°24' E 003°15'0 0.5
2015-Aug-26 21:01N 74°24' E 003°17'0 0.5
2015-Aug-26 20:01N 74°24' E 003°18'1 0.5
2015-Aug-26 19:01N 74°25' E 003°20'0 0.5
2015-Aug-26 18:01N 74°25' E 003°21'0 0.4
2015-Aug-26 17:01N 74°25' E 003°22'0 0.4
2015-Aug-26 16:01N 74°26' E 003°22'0 0.3
2015-Aug-26 15:01N 74°26' E 003°23'0 0.2
2015-Aug-26 14:01N 74°26' E 003°23'0 0.1
2015-Aug-26 13:01N 74°26' E 003°23'0 0.2
2015-Aug-26 11:01N 74°27' E 003°24'0 0.3
2015-Aug-26 10:01N 74°27' E 003°25'0 0.4
2015-Aug-26 09:01N 74°27' E 003°26'0 0.5
2015-Aug-26 08:01N 74°27' E 003°27'0 0.5
2015-Aug-26 07:01N 74°28' E 003°28'0 0.5
2015-Aug-26 06:01N 74°28' E 003°28'0 0.5
2015-Aug-26 05:01N 74°29' E 003°28'0 0.3
2015-Aug-26 04:01N 74°29' E 003°27'0 0.3
2015-Aug-26 03:01N 74°29' E 003°27'0 0.2
2015-Aug-26 02:01N 74°29' E 003°26'0 0.1
2015-Aug-26 01:01N 74°29' E 003°26'0 0.0
2015-Aug-26 00:01N 74°29' E 003°26'0 0.2
2015-Aug-25 23:01N 74°30' E 003°27'0 0.2
2015-Aug-25 22:01N 74°30' E 003°28'0 0.3
2015-Aug-25 21:01N 74°30' E 003°29'1 0.5
2015-Aug-25 20:01N 74°30' E 003°30'1 0.6
2015-Aug-25 19:01N 74°31' E 003°31'1 0.5
2015-Aug-25 18:01N 74°31' E 003°31'1 0.6
2015-Aug-25 17:01N 74°32' E 003°30'1 0.6
2015-Aug-25 16:01N 74°32' E 003°29'1 0.5
2015-Aug-25 15:01N 74°33' E 003°28'0 0.4
2015-Aug-25 14:01N 74°33' E 003°26'0 0.3
2015-Aug-25 13:01N 74°33' E 003°25'0 0.1
2015-Aug-25 12:01N 74°33' E 003°25'0 0.1
2015-Aug-25 11:01N 74°33' E 003°25'0 0.2
2015-Aug-25 10:01N 74°33' E 003°26'0 0.3
2015-Aug-25 09:01N 74°33' E 003°27'0 0.4
2015-Aug-25 08:01N 74°34' E 003°27'0 0.5
2015-Aug-25 07:01N 74°34' E 003°27'0 0.4
2015-Aug-25 06:01N 74°35' E 003°26'0 0.5
2015-Aug-25 05:01N 74°35' E 003°25'1 0.5
2015-Aug-25 04:01N 74°35' E 003°24'0 0.5
2015-Aug-25 03:01N 74°36' E 003°22'0 0.4
2015-Aug-25 02:01N 74°36' E 003°21'0 0.4
2015-Aug-25 01:01N 74°36' E 003°20'0 0.3
2015-Aug-25 00:01N 74°35' E 003°18'0 0.2
2015-Aug-24 23:01N 74°35' E 003°18'0 0.2
2015-Aug-24 22:01N 74°35' E 003°18'0 0.1
2015-Aug-24 21:01N 74°35' E 003°18'0 0.1
2015-Aug-24 20:01N 74°35' E 003°18'0 0.2
2015-Aug-24 19:01N 74°35' E 003°18'0 0.2
2015-Aug-24 18:01N 74°36' E 003°18'0 0.3
2015-Aug-24 17:01N 74°36' E 003°17'0 0.4
2015-Aug-24 16:01N 74°36' E 003°16'0 0.5
2015-Aug-24 15:01N 74°36' E 003°15'0 0.4
2015-Aug-24 14:01N 74°36' E 003°13'0 0.4
2015-Aug-24 13:01N 74°36' E 003°11'0 0.4
2015-Aug-24 12:01N 74°36' E 003°10'0 0.4
2015-Aug-24 11:01N 74°36' E 003°09'0 0.4
2015-Aug-24 10:01N 74°35' E 003°08'0 0.3
2015-Aug-24 09:01N 74°35' E 003°08'0 0.2
2015-Aug-24 08:01N 74°35' E 003°08'0 0.1
2015-Aug-24 06:01N 74°35' E 003°08'0 0.2
2015-Aug-24 05:01N 74°35' E 003°07'0 0.4
2015-Aug-24 04:01N 74°35' E 003°06'0 0.5
2015-Aug-24 03:01N 74°35' E 003°04'1 0.5
2015-Aug-24 02:01N 74°35' E 003°02'1 0.6
2015-Aug-24 01:01N 74°34' E 003°00'1 0.6
2015-Aug-24 00:01N 74°34' E 002°59'1 0.5
2015-Aug-23 23:01N 74°34' E 002°58'0 0.5
2015-Aug-23 22:01N 74°33' E 002°57'0 0.4
2015-Aug-23 21:01N 74°33' E 002°56'0 0.3
2015-Aug-23 20:01N 74°32' E 002°56'0 0.2
2015-Aug-23 19:01N 74°32' E 002°56'0 0.1
2015-Aug-23 18:01N 74°32' E 002°56'0 0.3
2015-Aug-23 17:01N 74°32' E 002°55'0 0.3
2015-Aug-23 16:01N 74°32' E 002°54'1 0.9
2015-Aug-23 15:01N 74°32' E 002°50'0 0.0
2015-Aug-23 14:01N 74°32' E 002°50'1 0.5
2015-Aug-23 13:01N 74°32' E 002°49'1 0.5
2015-Aug-23 12:01N 74°31' E 002°47'1 0.6
2015-Aug-23 11:01N 74°31' E 002°46'0 0.5
2015-Aug-23 10:01N 74°30' E 002°45'0 0.5
2015-Aug-23 09:01N 74°30' E 002°44'0 0.4
2015-Aug-23 08:01N 74°30' E 002°44'0 0.3
2015-Aug-23 07:01N 74°29' E 002°43'0 0.3
2015-Aug-23 06:01N 74°29' E 002°43'0 0.2
2015-Aug-23 05:01N 74°29' E 002°42'0 0.2
2015-Aug-23 04:01N 74°29' E 002°41'0 0.3
2015-Aug-23 03:01N 74°29' E 002°40'1 0.3
2015-Aug-23 01:01N 74°28' E 002°38'0 0.3
2015-Aug-23 00:01N 74°28' E 002°37'0 0.3
2015-Aug-22 23:01N 74°28' E 002°37'0 0.3
2015-Aug-22 22:01N 74°28' E 002°36'0 0.3
2015-Aug-22 21:01N 74°27' E 002°37'0 0.3
2015-Aug-22 20:01N 74°27' E 002°37'0 0.3
2015-Aug-22 19:01N 74°27' E 002°38'0 0.3
2015-Aug-22 18:01N 74°27' E 002°39'0 0.3
2015-Aug-22 17:01N 74°27' E 002°39'0 0.1
2015-Aug-22 16:01N 74°27' E 002°40'0 0.1
2015-Aug-22 15:01N 74°26' E 002°40'0 0.1
2015-Aug-22 14:01N 74°26' E 002°40'0 0.2
2015-Aug-22 13:01N 74°26' E 002°39'0 0.3
2015-Aug-22 12:01N 74°26' E 002°38'0 0.4
2015-Aug-22 11:01N 74°26' E 002°38'0 0.5
2015-Aug-22 10:01N 74°25' E 002°38'1 0.6
2015-Aug-22 09:01N 74°25' E 002°38'1 0.7
2015-Aug-22 08:01N 74°24' E 002°39'1 0.6
2015-Aug-22 07:01N 74°24' E 002°41'0 0.5
2015-Aug-22 06:01N 74°23' E 002°42'0 0.5
2015-Aug-22 05:01N 74°23' E 002°44'0 0.5
2015-Aug-22 04:01N 74°23' E 002°45'0 0.4
2015-Aug-22 03:01N 74°23' E 002°47'0 0.3
2015-Aug-22 02:01N 74°23' E 002°48'0 0.3
2015-Aug-22 01:01N 74°22' E 002°49'0 0.3
2015-Aug-22 00:01N 74°22' E 002°50'0 0.4
2015-Aug-21 23:01N 74°22' E 002°51'0 0.4
2015-Aug-21 22:01N 74°22' E 002°52'0 0.4
2015-Aug-21 21:02N 74°22' E 002°53'0 0.5
2015-Aug-21 20:01N 74°21' E 002°54'1 0.5
2015-Aug-21 19:01N 74°21' E 002°56'1 0.5
2015-Aug-21 18:01N 74°21' E 002°58'1 0.6
2015-Aug-21 17:01N 74°21' E 002°60'1 0.6
2015-Aug-21 16:01N 74°21' E 003°02'1 0.6
2015-Aug-21 15:01N 74°20' E 003°04'1 0.6
2015-Aug-21 14:01N 74°20' E 003°06'1 0.6
2015-Aug-21 13:01N 74°20' E 003°08'1 0.5
2015-Aug-21 12:01N 74°20' E 003°10'1 0.5
2015-Aug-21 11:01N 74°20' E 003°12'1 0.5
2015-Aug-21 10:01N 74°20' E 003°14'0 0.5
2015-Aug-21 09:01N 74°20' E 003°15'0 0.5
2015-Aug-21 08:01N 74°19' E 003°17'1 0.5
2015-Aug-21 07:01N 74°19' E 003°19'1 0.5
2015-Aug-21 06:01N 74°19' E 003°21'0 0.5
2015-Aug-21 05:01N 74°19' E 003°22'0 0.5
2015-Aug-21 04:01N 74°19' E 003°24'0 0.5
2015-Aug-21 03:01N 74°19' E 003°26'0 0.5
2015-Aug-21 02:01N 74°19' E 003°28'0 0.4
2015-Aug-21 01:01N 74°19' E 003°29'0 0.4
2015-Aug-21 00:01N 74°19' E 003°30'0 0.3
2015-Aug-20 23:01N 74°19' E 003°32'  

Dump ship's entire track history